createdAt,value
2023-01-04T00:02:13.551Z,28.00
2023-01-04T00:04:42.192Z,38.13
2023-01-04T00:07:10.717Z,38.83
2023-01-04T00:09:39.248Z,36.27
2023-01-04T00:12:11.966Z,34.93
2023-01-04T00:14:40.529Z,37.23
2023-01-04T00:17:09.133Z,34.73
2023-01-04T00:19:37.708Z,34.63
2023-01-04T00:22:06.228Z,30.67
2023-01-04T00:24:34.790Z,30.27
2023-01-04T00:27:03.418Z,29.90
2023-01-04T00:29:33.389Z,31.70
2023-01-04T00:32:01.971Z,29.03
2023-01-04T00:34:30.532Z,31.20
2023-01-04T00:36:59.013Z,30.50
2023-01-04T00:39:29.440Z,34.43
2023-01-04T00:42:05.356Z,34.83
2023-01-04T00:44:36.318Z,30.47
2023-01-04T00:47:05.988Z,32.57
2023-01-04T00:49:34.801Z,32.83
2023-01-04T00:52:03.316Z,31.50
2023-01-04T00:54:31.827Z,26.23
2023-01-04T00:57:01.409Z,27.00
2023-01-04T00:59:30.047Z,25.47
2023-01-04T01:02:00.118Z,24.10
2023-01-04T01:04:28.862Z,23.43
2023-01-04T01:06:57.484Z,24.00
2023-01-04T01:09:26.069Z,22.20
2023-01-04T01:11:55.328Z,22.00
2023-01-04T01:14:25.979Z,21.10
2023-01-04T01:16:57.546Z,20.90
2023-01-04T01:19:29.225Z,21.87
2023-01-04T01:21:58.607Z,25.30
2023-01-04T01:24:28.298Z,22.77
2023-01-04T01:26:57.354Z,21.50
2023-01-04T01:29:26.341Z,22.10
2023-01-04T01:31:55.054Z,20.43
2023-01-04T01:34:23.668Z,18.03
2023-01-04T01:36:53.630Z,18.00
2023-01-04T01:39:22.224Z,17.23
2023-01-04T01:41:50.839Z,17.67
2023-01-04T01:44:58.862Z,21.87
2023-01-04T01:47:30.711Z,16.47
2023-01-04T01:49:59.502Z,16.63
2023-01-04T01:52:34.692Z,17.33
2023-01-04T01:55:07.725Z,17.03
2023-01-04T01:57:39.179Z,17.53
2023-01-04T02:00:11.010Z,16.67
2023-01-04T02:02:51.517Z,17.60
2023-01-04T02:05:22.094Z,16.77
2023-01-04T02:07:52.593Z,16.60
2023-01-04T02:10:21.795Z,16.63
2023-01-04T02:12:51.339Z,16.33
2023-01-04T02:15:20.764Z,16.17
2023-01-04T02:17:55.579Z,14.90
2023-01-04T02:20:39.870Z,15.37
2023-01-04T02:23:55.344Z,14.30
2023-01-04T02:30:13.433Z,14.90
2023-01-04T02:32:57.300Z,14.97
2023-01-04T02:35:34.000Z,14.47
2023-01-04T02:38:11.268Z,16.07
2023-01-04T02:40:48.635Z,15.47
2023-01-04T02:43:42.319Z,14.53
2023-01-04T02:46:17.823Z,14.70
2023-01-04T02:49:06.040Z,15.47
2023-01-04T02:51:37.361Z,13.73
2023-01-04T02:54:10.679Z,17.60
2023-01-04T02:57:05.618Z,25.40
2023-01-04T02:59:52.369Z,15.93
2023-01-04T03:02:51.506Z,14.93
2023-01-04T03:05:48.369Z,14.83
2023-01-04T03:08:25.872Z,20.00
2023-01-04T03:11:01.332Z,16.70
2023-01-04T03:13:34.709Z,15.33
2023-01-04T03:16:09.138Z,15.63
2023-01-04T03:18:43.050Z,14.60
2023-01-04T03:21:16.658Z,15.77
2023-01-04T03:24:06.638Z,14.37
2023-01-04T03:26:57.061Z,14.50
2023-01-04T03:29:52.609Z,15.17
2023-01-04T03:32:46.219Z,13.17
2023-01-04T03:35:24.668Z,13.03
2023-01-04T03:38:14.370Z,13.27
2023-01-04T03:41:03.978Z,13.03
2023-01-04T03:43:56.716Z,14.00
2023-01-04T03:46:51.107Z,12.80
2023-01-04T03:49:26.909Z,13.87
2023-01-04T03:52:00.699Z,13.73
2023-01-04T03:54:35.153Z,12.60
2023-01-04T03:57:07.277Z,12.97
2023-01-04T03:59:42.843Z,13.77
2023-01-04T04:02:14.189Z,13.63
2023-01-04T04:05:01.014Z,14.80
2023-01-04T04:07:47.979Z,13.73
2023-01-04T04:10:19.038Z,13.43
2023-01-04T04:12:52.750Z,14.97
2023-01-04T04:15:22.159Z,14.10
2023-01-04T04:17:51.449Z,15.70
2023-01-04T04:20:20.946Z,14.30
2023-01-04T04:22:50.209Z,13.90
2023-01-04T04:25:21.199Z,12.77
2023-01-04T04:27:50.643Z,12.53
2023-01-04T04:30:20.010Z,13.57
2023-01-04T04:32:49.428Z,12.90
2023-01-04T04:35:19.033Z,13.07
2023-01-04T04:37:48.449Z,14.93
2023-01-04T04:40:35.050Z,13.20
2023-01-04T04:43:09.144Z,14.07
2023-01-04T04:45:38.734Z,13.77
2023-01-04T04:48:09.284Z,13.67
2023-01-04T04:50:38.731Z,14.40
2023-01-04T04:53:08.171Z,14.00
2023-01-04T04:55:37.600Z,14.63
2023-01-04T04:58:08.521Z,15.40
2023-01-04T05:00:37.950Z,14.60
2023-01-04T05:03:08.057Z,13.70
2023-01-04T05:05:38.475Z,14.03
2023-01-04T05:08:08.902Z,14.80
2023-01-04T05:10:40.038Z,13.97
2023-01-04T05:13:13.642Z,13.97
2023-01-04T05:15:47.356Z,13.57
2023-01-04T05:18:19.160Z,14.27
2023-01-04T05:20:49.738Z,13.90
2023-01-04T05:23:21.389Z,14.07
2023-01-04T05:25:55.923Z,13.97
2023-01-04T05:28:28.076Z,14.77
2023-01-04T05:30:57.892Z,14.77
2023-01-04T05:33:29.969Z,14.83
2023-01-04T05:36:02.322Z,14.07
2023-01-04T05:38:33.980Z,15.23
2023-01-04T05:41:04.507Z,15.77
2023-01-04T05:43:36.071Z,14.43
2023-01-04T05:46:06.856Z,14.30
2023-01-04T05:48:37.219Z,15.60
2023-01-04T05:51:09.801Z,15.57
2023-01-04T05:53:40.750Z,15.43
2023-01-04T05:56:11.373Z,14.37
2023-01-04T05:58:43.430Z,15.43
2023-01-04T06:01:13.626Z,14.60
2023-01-04T06:03:44.912Z,13.97
2023-01-04T06:06:15.152Z,14.07
2023-01-04T06:08:45.240Z,13.80
2023-01-04T06:11:15.581Z,12.93
2023-01-04T06:13:47.343Z,14.40
2023-01-04T06:16:17.902Z,13.73
2023-01-04T06:18:48.298Z,13.87
2023-01-04T06:21:18.545Z,13.97
2023-01-04T06:23:48.918Z,14.60
2023-01-04T06:26:27.947Z,13.50
2023-01-04T06:29:00.017Z,14.43
2023-01-04T06:31:30.505Z,13.80
2023-01-04T06:34:00.872Z,13.53
2023-01-04T06:36:31.403Z,15.03
2023-01-04T06:39:01.716Z,14.90
2023-01-04T06:41:32.057Z,16.70
2023-01-04T06:44:05.950Z,21.23
2023-01-04T06:46:36.207Z,22.53
2023-01-04T06:49:06.709Z,18.20
2023-01-04T06:51:36.839Z,15.17
2023-01-04T06:54:07.154Z,16.43
2023-01-04T06:56:37.363Z,14.40
2023-01-04T06:59:10.152Z,14.70
2023-01-04T07:01:40.907Z,13.53
2023-01-04T07:04:11.596Z,14.80
2023-01-04T07:06:41.934Z,14.00
2023-01-04T07:09:12.779Z,14.13
2023-01-04T07:11:43.215Z,14.77
2023-01-04T07:14:15.265Z,13.20
2023-01-04T07:16:46.099Z,14.10
2023-01-04T07:19:16.740Z,13.97
2023-01-04T07:21:47.064Z,16.23
2023-01-04T07:24:17.392Z,18.00
2023-01-04T07:26:47.716Z,16.37
2023-01-04T07:29:22.998Z,13.23
2023-01-04T07:31:54.093Z,12.47
2023-01-04T07:34:26.689Z,14.17
2023-01-04T07:36:57.222Z,13.43
2023-01-04T07:39:27.513Z,12.37
2023-01-04T07:41:57.740Z,10.57
2023-01-04T07:44:29.747Z,10.10
2023-01-04T07:47:00.122Z,10.87
2023-01-04T07:49:30.443Z,9.40
2023-01-04T07:52:00.445Z,9.60
2023-01-04T07:54:30.691Z,9.33
2023-01-04T07:57:01.209Z,8.07
2023-01-04T07:59:33.184Z,8.80
2023-01-04T08:02:03.866Z,10.37
2023-01-04T08:04:35.380Z,8.23
2023-01-04T08:07:05.900Z,7.70
2023-01-04T08:09:40.421Z,9.37
2023-01-04T08:12:10.741Z,10.07
2023-01-04T08:14:42.800Z,7.97
2023-01-04T08:17:13.230Z,9.30
2023-01-04T08:19:43.669Z,8.83
2023-01-04T08:22:14.188Z,8.67
2023-01-04T08:24:51.471Z,7.40
2023-01-04T08:27:22.917Z,7.47
2023-01-04T08:29:54.773Z,7.70
2023-01-04T08:32:25.304Z,7.83
2023-01-04T08:34:55.433Z,8.13
2023-01-04T08:37:25.760Z,7.97
2023-01-04T08:39:56.171Z,10.37
2023-01-04T08:42:31.045Z,7.53
2023-01-04T08:45:03.598Z,7.57
2023-01-04T08:47:35.128Z,8.37
2023-01-04T08:50:10.212Z,9.33
2023-01-04T08:52:41.206Z,7.80
2023-01-04T08:55:13.881Z,8.50
2023-01-04T08:57:45.857Z,9.17
2023-01-04T09:00:22.158Z,8.67
2023-01-04T09:02:53.389Z,8.90
2023-01-04T09:05:26.349Z,10.37
2023-01-04T09:07:56.776Z,8.87
2023-01-04T09:10:27.310Z,9.23
2023-01-04T09:12:57.559Z,8.93
2023-01-04T09:15:30.603Z,9.60
2023-01-04T09:20:51.850Z,9.83
2023-01-04T09:23:22.165Z,9.87
2023-01-04T09:25:52.700Z,10.23
2023-01-04T09:28:24.037Z,9.80
2023-01-04T09:30:55.729Z,10.70
2023-01-04T09:33:47.747Z,12.23
2023-01-04T09:36:18.889Z,15.10
2023-01-04T09:38:49.799Z,11.80
2023-01-04T09:41:27.720Z,13.20
2023-01-04T09:44:00.591Z,10.73
2023-01-04T09:46:39.490Z,10.50
2023-01-04T09:49:20.608Z,9.90
2023-01-04T09:51:58.394Z,9.03
2023-01-04T09:54:37.429Z,9.00
2023-01-04T09:57:11.441Z,9.43
2023-01-04T09:59:42.175Z,11.60
2023-01-04T10:02:18.021Z,10.13
2023-01-04T10:04:51.224Z,8.97
2023-01-04T10:07:26.359Z,8.43
2023-01-04T10:09:57.430Z,8.00
2023-01-04T10:12:43.066Z,8.40
2023-01-04T10:15:30.288Z,8.20
2023-01-04T10:21:35.011Z,12.77
2023-01-04T10:24:26.555Z,10.87
2023-01-04T10:27:03.743Z,11.30
2023-01-04T10:29:58.129Z,12.90
2023-01-04T10:32:37.884Z,13.20
2023-01-04T10:35:23.044Z,13.57
2023-01-04T10:38:00.330Z,14.13
2023-01-04T10:40:31.783Z,14.47
2023-01-04T10:43:05.493Z,15.70
2023-01-04T10:45:43.284Z,17.50
2023-01-04T10:48:21.086Z,14.90
2023-01-04T10:51:02.157Z,15.23
2023-01-04T10:53:45.387Z,14.73
2023-01-04T10:56:24.416Z,15.57
2023-01-04T10:59:04.059Z,15.70
2023-01-04T11:01:38.860Z,15.87
2023-01-04T11:04:18.223Z,16.53
2023-01-04T11:06:54.902Z,14.07
2023-01-04T11:09:27.065Z,11.57
2023-01-04T11:11:59.751Z,14.23
2023-01-04T11:14:35.251Z,16.40
2023-01-04T11:17:10.533Z,16.10
2023-01-04T11:19:41.579Z,16.80
2023-01-04T11:22:19.317Z,16.97
2023-01-04T11:25:34.581Z,18.23
2023-01-04T11:27:49.740Z,15.90
2023-01-04T11:30:24.229Z,16.97
2023-01-04T11:33:01.631Z,15.03
2023-01-04T11:35:50.583Z,13.53
2023-01-04T11:38:24.608Z,14.47
2023-01-04T11:41:01.702Z,14.33
2023-01-04T11:43:33.651Z,13.67
2023-01-04T11:46:07.505Z,13.80
2023-01-04T11:48:43.405Z,15.13
2023-01-04T11:51:23.353Z,14.57
2023-01-04T11:54:05.533Z,15.43
2023-01-04T11:56:37.719Z,17.63
2023-01-04T12:05:29.680Z,14.57
2023-01-04T12:08:01.877Z,14.03
2023-01-04T12:10:34.112Z,12.93
2023-01-04T12:13:05.572Z,12.77
2023-01-04T12:15:42.961Z,13.37
2023-01-04T12:18:19.324Z,15.13
2023-01-04T12:20:50.087Z,13.40
2023-01-04T12:23:21.290Z,14.20
2023-01-04T12:25:54.505Z,14.90
2023-01-04T12:28:36.821Z,14.30
2023-01-04T12:31:29.962Z,14.80
2023-01-04T12:34:02.345Z,13.60
2023-01-04T12:37:04.959Z,13.38
2023-01-04T12:39:48.252Z,13.52
2023-01-04T12:42:27.690Z,14.32
2023-01-04T12:45:14.013Z,14.13
2023-01-04T12:48:03.142Z,15.55
2023-01-04T12:50:38.285Z,13.27
2023-01-04T12:53:49.461Z,12.95
2023-01-04T12:56:20.617Z,18.52
2023-01-04T12:59:27.435Z,17.00
2023-01-04T13:02:26.026Z,18.38
2023-01-04T13:07:51.724Z,20.83
2023-01-04T13:10:31.044Z,20.57
2023-01-04T13:13:35.258Z,19.63
2023-01-04T13:16:19.687Z,19.67
2023-01-04T13:18:52.209Z,23.33
2023-01-04T13:21:31.223Z,25.37
2023-01-04T13:24:05.225Z,23.43
2023-01-04T13:26:46.924Z,21.50
2023-01-04T13:29:20.930Z,24.70
2023-01-04T13:31:59.036Z,24.80
2023-01-04T13:34:33.017Z,23.07
2023-01-04T13:37:14.238Z,22.95
2023-01-04T13:39:47.150Z,21.45
2023-01-04T13:42:28.594Z,21.88
2023-01-04T13:45:24.827Z,21.58
2023-01-04T13:48:01.303Z,22.17
2023-01-04T13:50:37.055Z,21.77
2023-01-04T13:53:09.244Z,20.80
2023-01-04T13:55:40.877Z,22.60
2023-01-04T13:58:19.998Z,22.87
2023-01-04T14:00:57.746Z,22.45
2023-01-04T14:03:40.257Z,22.48
2023-01-04T14:06:21.598Z,20.73
2023-01-04T14:09:03.992Z,18.90
2023-01-04T14:11:54.417Z,20.42
2023-01-04T14:14:35.975Z,20.17
2023-01-04T14:17:26.673Z,20.15
2023-01-04T14:20:00.508Z,20.45
2023-01-04T14:22:44.834Z,20.80
2023-01-04T14:25:56.837Z,21.57
2023-01-04T14:28:44.873Z,22.13
2023-01-04T14:31:27.703Z,21.37
2023-01-04T14:33:59.900Z,22.63
2023-01-04T14:36:34.075Z,22.88
2023-01-04T14:39:25.805Z,22.27
2023-01-04T14:42:00.281Z,21.20
2023-01-04T14:44:38.025Z,22.80
2023-01-04T14:47:14.563Z,22.90
2023-01-04T14:52:26.198Z,21.17
2023-01-04T14:54:57.259Z,24.73
2023-01-04T14:57:28.311Z,25.17
2023-01-04T15:00:02.399Z,27.30
2023-01-04T15:02:39.512Z,26.23
2023-01-04T15:05:15.222Z,29.17
2023-01-04T15:07:51.172Z,31.10
2023-01-04T15:10:26.516Z,30.47
2023-01-04T15:12:58.391Z,30.97
2023-01-04T15:15:29.108Z,29.57
2023-01-04T15:17:59.751Z,29.97
2023-01-04T15:20:30.269Z,35.53
2023-01-04T15:23:03.059Z,31.73
2023-01-04T15:25:34.002Z,31.97
2023-01-04T15:28:06.782Z,32.43
2023-01-04T15:30:37.313Z,32.80
2023-01-04T15:33:08.348Z,34.10
2023-01-04T15:35:39.688Z,32.73
2023-01-04T15:38:17.837Z,32.70
2023-01-04T15:40:49.080Z,35.13
2023-01-04T15:43:18.968Z,33.50
2023-01-04T15:45:49.289Z,36.03
2023-01-04T15:48:20.334Z,34.27
2023-01-04T15:50:50.843Z,34.73
2023-01-04T15:53:23.333Z,35.10
2023-01-04T15:55:54.768Z,36.43
2023-01-04T15:58:27.161Z,36.50
2023-01-04T16:01:02.736Z,39.53
2023-01-04T16:03:37.520Z,41.77
2023-01-04T16:06:10.297Z,48.07
2023-01-04T16:08:42.774Z,51.33
2023-01-04T16:11:18.437Z,56.60
2023-01-04T16:13:51.009Z,56.60
2023-01-04T16:16:23.531Z,54.90
2023-01-04T16:18:56.159Z,56.93
2023-01-04T16:21:28.224Z,55.53
2023-01-04T16:24:07.192Z,55.00
2023-01-04T16:26:40.437Z,58.23
2023-01-04T16:29:13.949Z,56.53
2023-01-04T16:31:46.065Z,55.80
2023-01-04T16:34:17.963Z,58.50
2023-01-04T16:36:48.489Z,61.53
2023-01-04T16:39:20.772Z,61.73
2023-01-04T16:41:52.355Z,65.07
2023-01-04T16:44:22.942Z,62.67
2023-01-04T16:46:54.997Z,59.57
2023-01-04T16:49:26.559Z,62.47
2023-01-04T16:51:57.106Z,64.77
2023-01-04T16:54:43.188Z,64.67
2023-01-04T16:57:15.052Z,59.10
2023-01-04T16:59:46.089Z,59.40
2023-01-04T17:02:17.062Z,58.07
2023-01-04T17:04:50.839Z,63.87
2023-01-04T17:07:21.656Z,66.40
2023-01-04T17:09:54.517Z,70.90
2023-01-04T17:12:54.491Z,75.23
2023-01-04T17:15:44.892Z,73.57
2023-01-04T17:18:06.679Z,88.50
2023-01-04T17:20:40.193Z,78.73
2023-01-04T17:23:10.809Z,82.93
2023-01-04T17:25:43.286Z,84.13
2023-01-04T17:28:14.129Z,79.50
2023-01-04T17:31:03.640Z,77.60
2023-01-04T17:33:39.358Z,90.17
2023-01-04T17:36:12.950Z,87.23
2023-01-04T17:38:43.471Z,71.63
2023-01-04T17:41:17.281Z,69.67
2023-01-04T17:43:53.662Z,66.23
2023-01-04T17:46:25.238Z,59.77
2023-01-04T17:49:20.984Z,72.47
2023-01-04T17:51:47.579Z,63.83
2023-01-04T17:54:21.584Z,62.00
2023-01-04T17:56:54.241Z,68.70
2023-01-04T17:59:25.002Z,63.50
2023-01-04T18:01:55.929Z,64.47
2023-01-04T18:04:26.547Z,66.10
2023-01-04T18:06:57.004Z,63.63
2023-01-04T18:09:27.915Z,63.07
2023-01-04T18:12:00.391Z,62.50
2023-01-04T18:14:31.322Z,60.77
2023-01-04T18:17:06.856Z,62.07
2023-01-04T18:19:40.250Z,66.50
2023-01-04T18:22:17.149Z,55.93
2023-01-04T18:24:48.723Z,65.43
2023-01-04T18:27:23.230Z,77.57
2023-01-04T18:29:55.412Z,70.20
2023-01-04T18:32:27.095Z,67.93
2023-01-04T18:34:57.977Z,82.60
2023-01-04T18:37:28.215Z,66.73
2023-01-04T18:39:58.951Z,67.43
2023-01-04T18:42:31.523Z,68.73
2023-01-04T18:45:01.844Z,59.00
2023-01-04T18:47:33.282Z,59.03
2023-01-04T18:50:04.526Z,58.03
2023-01-04T18:52:36.188Z,59.73
2023-01-04T18:55:08.055Z,57.83
2023-01-04T18:57:40.318Z,61.03
2023-01-04T19:00:12.394Z,61.97
2023-01-04T19:02:43.485Z,66.37
2023-01-04T19:05:14.666Z,58.83
2023-01-04T19:07:45.497Z,57.53
2023-01-04T19:10:16.028Z,68.07
2023-01-04T19:12:48.717Z,59.33
2023-01-04T19:15:19.232Z,58.93
2023-01-04T19:17:49.660Z,59.77
2023-01-04T19:20:20.197Z,59.60
2023-01-04T19:22:50.929Z,61.97
2023-01-04T19:25:27.859Z,62.80
2023-01-04T19:28:00.688Z,66.67
2023-01-04T19:30:31.995Z,63.90
2023-01-04T19:33:02.669Z,83.83
2023-01-04T19:35:32.887Z,76.53
2023-01-04T19:38:03.541Z,70.57
2023-01-04T19:40:34.869Z,61.37
2023-01-04T19:43:09.393Z,58.23
2023-01-04T19:45:40.911Z,60.00
2023-01-04T19:48:11.566Z,58.87
2023-01-04T19:50:42.312Z,56.43
2023-01-04T19:53:14.680Z,58.60
2023-01-04T19:55:45.720Z,58.30
2023-01-04T19:58:18.398Z,62.23
2023-01-04T20:00:54.828Z,61.83
2023-01-04T20:03:30.796Z,62.90
2023-01-04T20:06:05.146Z,65.03
2023-01-04T20:08:36.078Z,70.33
2023-01-04T20:11:08.350Z,65.60
2023-01-04T20:13:40.511Z,67.50
2023-01-04T20:16:11.562Z,69.53
2023-01-04T20:18:42.197Z,70.43
2023-01-04T20:21:14.152Z,68.20
2023-01-04T20:23:44.791Z,71.53
2023-01-04T20:26:18.201Z,72.13
2023-01-04T20:28:50.749Z,78.17
2023-01-04T20:31:22.346Z,77.07
2023-01-04T20:33:54.993Z,74.97
2023-01-04T20:36:27.166Z,70.40
2023-01-04T20:39:00.138Z,72.57
2023-01-04T20:41:32.716Z,78.13
2023-01-04T20:44:04.597Z,68.07
2023-01-04T20:46:35.378Z,63.10
2023-01-04T20:49:08.905Z,64.73
2023-01-04T20:51:41.082Z,62.77
2023-01-04T20:54:12.225Z,64.23
2023-01-04T20:56:44.380Z,65.40
2023-01-04T20:59:21.782Z,64.47
2023-01-04T21:01:52.472Z,71.60
2023-01-04T21:04:24.586Z,66.53
2023-01-04T21:06:55.304Z,70.40
2023-01-04T21:09:26.149Z,72.77
2023-01-04T21:11:59.523Z,70.77
2023-01-04T21:14:36.451Z,74.93
2023-01-04T21:17:07.249Z,68.17
2023-01-04T21:19:40.750Z,67.30
2023-01-04T21:22:11.176Z,62.27
2023-01-04T21:24:42.004Z,65.57
2023-01-04T21:27:12.445Z,63.27
2023-01-04T21:29:45.731Z,68.20
2023-01-04T21:32:16.665Z,68.43
2023-01-04T21:34:47.715Z,63.23
2023-01-04T21:37:18.852Z,63.20
2023-01-04T21:39:50.908Z,63.03
2023-01-04T21:42:21.656Z,61.63
2023-01-04T21:44:53.711Z,66.73
2023-01-04T21:47:24.041Z,65.93
2023-01-04T21:49:55.900Z,72.37
2023-01-04T21:52:26.223Z,66.97
2023-01-04T21:54:56.947Z,68.50
2023-01-04T21:57:26.912Z,65.37
2023-01-04T21:59:59.044Z,72.83
2023-01-04T22:02:29.431Z,67.90
2023-01-04T22:04:59.679Z,69.20
2023-01-04T22:07:30.221Z,72.13
2023-01-04T22:10:00.528Z,77.50
2023-01-04T22:12:30.657Z,53.87
2023-01-04T22:15:02.368Z,52.87
2023-01-04T22:17:32.659Z,47.77
2023-01-04T22:20:03.900Z,43.10
2023-01-04T22:22:34.201Z,33.43
2023-01-04T22:25:04.416Z,30.93
2023-01-04T22:27:34.437Z,29.67
2023-01-04T22:30:07.018Z,25.77
2023-01-04T22:32:37.542Z,22.67
2023-01-04T22:35:08.585Z,21.50
2023-01-04T22:37:39.022Z,20.10
2023-01-04T22:40:10.786Z,21.73
2023-01-04T22:42:40.882Z,19.20
2023-01-04T22:45:14.183Z,20.97
2023-01-04T22:47:45.523Z,20.03
2023-01-04T22:50:16.065Z,21.43
2023-01-04T22:52:50.987Z,21.13
2023-01-04T22:55:22.028Z,20.43
2023-01-04T22:57:52.360Z,21.30
2023-01-04T23:00:24.218Z,21.90
2023-01-04T23:02:54.695Z,22.03
2023-01-04T23:05:25.283Z,21.97
2023-01-04T23:07:55.774Z,23.03
2023-01-04T23:10:26.226Z,24.30
2023-01-04T23:12:56.766Z,24.57
2023-01-04T23:15:29.236Z,35.97
2023-01-04T23:17:59.556Z,40.80
2023-01-04T23:20:29.777Z,35.47
2023-01-04T23:23:00.303Z,34.43
2023-01-04T23:25:30.414Z,37.40
2023-01-04T23:28:00.534Z,37.53
2023-01-04T23:30:32.396Z,34.73
2023-01-04T23:33:02.743Z,34.70
2023-01-04T23:35:32.749Z,32.80
2023-01-04T23:38:04.007Z,31.83
2023-01-04T23:40:35.184Z,30.97
2023-01-04T23:43:05.654Z,30.10
2023-01-04T23:45:40.214Z,29.93
2023-01-04T23:48:10.189Z,29.73
2023-01-04T23:50:40.106Z,30.10
2023-01-04T23:53:10.336Z,27.80
2023-01-04T23:55:40.457Z,28.23
2023-01-04T23:58:10.973Z,26.50
